Time;durP1;ratioP1;P1;durP2;ratioP2;P2;SDS_P1;SDS_P2;PMS_P1;PMS_P2;Temp;Humidity;BMP_temperature;BMP_pressure;BME280_temperature;BME280_humidity;BME280_pressure;Samples;Min_cycle;Max_cycle;Signal;HPM_P1;HPM_P2
2022/03/24 00:00:21;;;;;;;52.13;34.57;;;9.10;99.90;;;;;;4850133;29;20221;-79
2022/03/24 00:02:53;;;;;;;51.87;34.70;;;9.00;99.90;;;;;;4852555;29;20245;-79
2022/03/24 00:05:20;;;;;;;50.80;35.97;;;9.10;99.90;;;;;;4853231;29;20613;-79
2022/03/24 00:07:47;;;;;;;52.40;35.67;;;9.00;99.90;;;;;;4852521;29;20214;-79
2022/03/24 00:10:15;;;;;;;51.03;35.97;;;8.90;99.90;;;;;;4851604;29;20274;-78
2022/03/24 00:12:46;;;;;;;50.40;36.03;;;8.90;99.90;;;;;;4849995;29;20277;-78
2022/03/24 00:15:14;;;;;;;53.03;37.37;;;8.90;99.90;;;;;;4849597;29;20206;-79
2022/03/24 00:17:44;;;;;;;58.30;36.07;;;8.80;99.90;;;;;;4849116;29;20214;-80
2022/03/24 00:20:13;;;;;;;53.27;36.10;;;8.80;99.90;;;;;;4848457;29;20717;-78
2022/03/24 00:22:46;;;;;;;51.47;34.97;;;8.80;99.90;;;;;;4847855;29;20294;-79
2022/03/24 00:25:17;;;;;;;55.53;34.67;;;8.80;99.90;;;;;;4847985;29;20217;-78
2022/03/24 00:27:45;;;;;;;54.73;35.17;;;8.90;99.90;;;;;;4847616;29;20210;-79
2022/03/24 00:30:14;;;;;;;52.73;34.40;;;8.70;99.90;;;;;;4847732;29;20312;-79
2022/03/24 00:32:42;;;;;;;51.27;35.17;;;8.70;99.90;;;;;;4847088;29;20654;-80
2022/03/24 00:35:17;;;;;;;53.43;36.23;;;8.60;99.90;;;;;;4847352;29;20206;-79
2022/03/24 00:37:50;;;;;;;48.13;35.13;;;8.50;99.90;;;;;;4847064;29;20228;-78
2022/03/24 00:40:17;;;;;;;47.63;34.93;;;8.50;99.90;;;;;;4850275;29;20210;-79
2022/03/24 00:42:48;;;;;;;60.23;37.37;;;8.40;99.90;;;;;;4852078;29;20226;-80
2022/03/24 00:45:15;;;;;;;49.43;34.87;;;8.40;99.90;;;;;;4851808;29;20250;-81
2022/03/24 00:47:44;;;;;;;52.83;35.23;;;8.40;99.90;;;;;;4851126;29;20208;-78
2022/03/24 00:50:15;;;;;;;52.00;34.17;;;8.40;99.90;;;;;;4849792;29;20213;-79
2022/03/24 00:52:45;;;;;;;51.63;35.83;;;8.40;99.90;;;;;;4850160;29;20237;-80
2022/03/24 00:55:17;;;;;;;55.77;36.10;;;8.40;99.90;;;;;;4849136;29;20214;-78
2022/03/24 00:57:50;;;;;;;60.23;37.53;;;8.30;99.90;;;;;;4850053;29;20212;-78
2022/03/24 01:00:21;;;;;;;59.78;44.97;;;8.30;99.90;;;;;;4846829;29;20446;-80
2022/03/24 01:02:49;;;;;;;49.77;36.73;;;8.50;99.90;;;;;;4848398;29;20261;-79
2022/03/24 01:05:16;;;;;;;51.77;36.57;;;8.50;99.90;;;;;;4846430;29;20214;-79
2022/03/24 01:07:45;;;;;;;50.30;36.40;;;8.30;99.90;;;;;;4845661;29;20594;-78
2022/03/24 01:10:17;;;;;;;53.17;35.67;;;8.20;99.90;;;;;;4844470;29;20539;-79
2022/03/24 01:12:46;;;;;;;54.57;37.17;;;8.10;99.90;;;;;;4844403;29;20205;-79
2022/03/24 01:15:18;;;;;;;60.27;35.77;;;7.90;99.90;;;;;;4843994;29;20198;-79
2022/03/24 01:17:47;;;;;;;52.83;36.07;;;7.80;99.90;;;;;;4845060;29;20270;-79
2022/03/24 01:20:16;;;;;;;49.43;34.27;;;7.80;99.90;;;;;;4844378;29;20300;-79
2022/03/24 01:22:47;;;;;;;51.03;35.77;;;7.70;99.90;;;;;;4848058;29;20226;-80
2022/03/24 01:25:17;;;;;;;55.23;35.20;;;7.60;99.90;;;;;;4850343;29;20300;-80
2022/03/24 01:27:44;;;;;;;53.63;35.20;;;7.60;99.90;;;;;;4849919;29;20297;-80
2022/03/24 01:30:20;;;;;;;50.63;35.37;;;7.50;99.90;;;;;;4848116;29;20213;-80
2022/03/24 01:32:50;;;;;;;53.13;34.53;;;7.50;99.90;;;;;;4847071;29;20198;-80
2022/03/24 01:35:17;;;;;;;53.93;33.90;;;7.50;99.90;;;;;;4848649;29;20241;-80
2022/03/24 01:37:44;;;;;;;52.40;34.63;;;7.50;99.90;;;;;;4844746;29;20221;-78
2022/03/24 01:40:14;;;;;;;56.67;35.23;;;7.50;99.90;;;;;;4844262;29;20210;-78
2022/03/24 01:42:44;;;;;;;51.30;35.43;;;7.50;99.90;;;;;;4844210;29;20623;-78
2022/03/24 01:45:17;;;;;;;52.93;36.77;;;7.60;99.90;;;;;;4848950;29;20214;-77
2022/03/24 01:47:45;;;;;;;54.78;43.47;;;7.60;99.90;;;;;;4849254;29;20463;-77
2022/03/24 01:50:19;;;;;;;57.87;37.07;;;7.70;99.90;;;;;;4851241;29;20210;-77
2022/03/24 01:52:54;;;;;;;50.33;35.93;;;7.60;99.90;;;;;;4851146;29;20238;-77
2022/03/24 01:55:23;;;;;;;52.00;35.77;;;7.60;99.90;;;;;;4852584;29;20296;-77
2022/03/24 01:57:51;;;;;;;50.97;35.40;;;7.50;99.90;;;;;;4852475;29;20242;-79
2022/03/24 02:00:23;;;;;;;55.13;35.93;;;7.60;99.90;;;;;;4848094;29;20206;-79
2022/03/24 02:02:55;;;;;;;52.33;35.43;;;7.50;99.90;;;;;;4848194;29;20824;-79
2022/03/24 02:05:26;;;;;;;53.83;35.73;;;7.40;99.90;;;;;;4853601;29;20220;-79
2022/03/24 02:07:53;;;;;;;52.90;35.47;;;7.40;99.90;;;;;;4852466;29;20210;-78
2022/03/24 02:10:20;;;;;;;51.93;35.03;;;7.50;99.90;;;;;;4853336;29;20227;-78
2022/03/24 02:12:48;;;;;;;54.80;35.53;;;7.40;99.90;;;;;;4853262;29;20274;-80
2022/03/24 02:15:21;;;;;;;52.90;34.97;;;7.30;99.90;;;;;;4854668;29;20220;-77
2022/03/24 02:17:48;;;;;;;51.53;35.33;;;7.30;99.90;;;;;;4853627;29;20293;-79
2022/03/24 02:20:23;;;;;;;52.23;35.73;;;7.30;99.90;;;;;;4853173;29;20274;-80
2022/03/24 02:22:52;;;;;;;53.57;36.33;;;7.30;99.90;;;;;;4853976;29;20225;-79
2022/03/24 02:25:22;;;;;;;54.10;35.57;;;7.20;99.90;;;;;;4853660;29;20206;-79
2022/03/24 02:27:52;;;;;;;52.50;33.77;;;7.30;99.90;;;;;;4854290;29;20214;-79
2022/03/24 02:30:20;;;;;;;49.07;35.57;;;7.20;99.90;;;;;;4852801;29;20210;-80
2022/03/24 02:32:54;;;;;;;53.67;36.47;;;7.10;99.90;;;;;;4854170;29;20250;-79
2022/03/24 02:35:23;;;;;;;53.10;35.60;;;7.10;99.90;;;;;;4855660;29;20225;-82
2022/03/24 02:37:55;;;;;;;52.13;35.57;;;7.10;99.90;;;;;;4857614;29;20226;-80
2022/03/24 02:40:25;;;;;;;56.73;35.80;;;7.00;99.90;;;;;;4854294;29;20209;-79
2022/03/24 02:42:55;;;;;;;52.77;34.53;;;6.90;99.90;;;;;;4855604;29;20230;-79
2022/03/24 02:45:29;;;;;;;50.67;34.50;;;6.90;99.90;;;;;;4854943;29;20227;-79
2022/03/24 02:47:57;;;;;;;53.17;34.17;;;6.90;99.90;;;;;;4855623;29;20658;-80
2022/03/24 02:50:29;;;;;;;50.23;33.97;;;6.90;99.90;;;;;;4855528;29;20206;-80
2022/03/24 02:53:00;;;;;;;49.97;34.00;;;6.90;99.90;;;;;;4854483;29;20267;-78
2022/03/24 02:55:32;;;;;;;56.73;35.20;;;6.90;99.90;;;;;;4853988;29;20198;-77
2022/03/24 02:57:59;;;;;;;51.37;35.47;;;6.90;99.90;;;;;;4851194;29;20296;-79
2022/03/24 03:00:27;;;;;;;49.57;35.63;;;6.80;99.90;;;;;;4851230;29;20217;-78
2022/03/24 03:03:00;;;;;;;49.67;34.03;;;6.80;99.90;;;;;;4852197;29;20316;-78
2022/03/24 03:05:28;;;;;;;54.83;36.97;;;6.80;99.90;;;;;;4852492;29;20210;-77
2022/03/24 03:07:55;;;;;;;53.87;35.47;;;6.80;99.90;;;;;;4851484;29;20217;-78
2022/03/24 03:10:30;;;;;;;58.47;36.57;;;6.70;99.90;;;;;;4850792;29;20217;-79
2022/03/24 03:12:59;;;;;;;56.83;35.90;;;6.70;99.90;;;;;;4842983;29;20221;-76
2022/03/24 03:15:26;;;;;;;54.77;35.70;;;6.60;99.90;;;;;;4847185;29;20296;-78
2022/03/24 03:17:53;;;;;;;51.10;36.20;;;6.60;99.90;;;;;;4845730;29;20243;-79
2022/03/24 03:20:20;;;;;;;52.73;35.40;;;6.70;99.90;;;;;;4849015;29;20221;-76
2022/03/24 03:22:49;;;;;;;53.43;35.47;;;6.70;99.90;;;;;;4848275;29;20273;-77
2022/03/24 03:25:17;;;;;;;54.47;36.03;;;6.60;99.90;;;;;;4848629;29;20210;-80
2022/03/24 03:27:46;;;;;;;51.90;36.43;;;6.40;99.90;;;;;;4848277;29;20260;-80
2022/03/24 03:30:16;;;;;;;58.60;37.13;;;6.40;99.90;;;;;;4847836;29;20662;-79
2022/03/24 03:32:44;;;;;;;54.97;37.03;;;6.50;99.90;;;;;;4847748;29;20689;-79
2022/03/24 03:35:14;;;;;;;54.70;37.00;;;6.50;99.90;;;;;;4847422;29;20222;-80
2022/03/24 03:37:41;;;;;;;60.20;37.67;;;6.40;99.90;;;;;;4849324;29;20246;-77
2022/03/24 03:40:09;;;;;;;61.13;38.03;;;6.30;99.90;;;;;;4850044;29;20212;-77
2022/03/24 03:42:37;;;;;;;58.30;36.53;;;6.40;99.90;;;;;;4850909;29;20233;-79
2022/03/24 03:45:23;;;;;;;60.67;38.90;;;6.40;99.90;;;;;;4850748;29;20749;-77
2022/03/24 03:47:50;;;;;;;65.53;41.13;;;6.30;99.90;;;;;;4850043;29;20242;-78
2022/03/24 03:50:22;;;;;;;65.00;42.47;;;6.40;99.90;;;;;;4847820;29;20214;-79
2022/03/24 03:52:53;;;;;;;73.63;44.47;;;6.30;99.90;;;;;;4847783;29;20473;-80
2022/03/24 03:55:20;;;;;;;78.23;45.57;;;6.30;99.90;;;;;;4850775;29;20454;-79
2022/03/24 03:57:55;;;;;;;77.10;44.03;;;6.40;99.90;;;;;;4852853;29;20216;-79
2022/03/24 04:03:12;;;;;;;81.67;43.03;;;6.20;99.90;;;;;;4852042;29;20263;-77
2022/03/24 04:05:45;;;;;;;72.23;42.03;;;6.20;99.90;;;;;;4851817;29;20658;-80
2022/03/24 04:08:14;;;;;;;68.37;40.67;;;6.20;99.90;;;;;;4850447;29;20214;-80
2022/03/24 04:10:41;;;;;;;66.90;41.50;;;6.20;99.90;;;;;;4851049;29;20206;-77
2022/03/24 04:13:16;;;;;;;69.53;40.60;;;6.10;99.90;;;;;;4851789;29;20206;-78
2022/03/24 04:15:47;;;;;;;65.43;38.17;;;6.10;99.90;;;;;;4852268;29;20205;-78
2022/03/24 04:18:16;;;;;;;61.90;37.60;;;6.10;99.90;;;;;;4851968;29;20213;-77
2022/03/24 04:20:44;;;;;;;61.23;38.23;;;6.10;99.90;;;;;;4851535;29;20222;-77
2022/03/24 04:23:14;;;;;;;65.37;40.07;;;6.10;99.90;;;;;;4849354;29;20234;-77
2022/03/24 04:25:41;;;;;;;65.90;40.07;;;6.00;99.90;;;;;;4849993;29;20297;-78
2022/03/24 04:28:09;;;;;;;63.73;38.90;;;5.90;99.90;;;;;;4849798;29;20217;-77
2022/03/24 04:30:38;;;;;;;56.23;38.23;;;5.90;99.90;;;;;;4851707;29;20449;-77
2022/03/24 04:33:07;;;;;;;67.03;40.30;;;5.90;99.90;;;;;;4853383;29;20462;-78
2022/03/24 04:35:36;;;;;;;57.43;38.13;;;5.90;99.90;;;;;;4852837;29;20442;-80
2022/03/24 04:38:05;;;;;;;63.67;38.47;;;5.90;99.90;;;;;;4852563;29;20841;-78
2022/03/24 04:40:37;;;;;;;66.97;39.00;;;5.80;99.90;;;;;;4853073;29;20814;-77
2022/03/24 04:43:07;;;;;;;58.63;36.10;;;5.80;99.90;;;;;;4855276;29;20234;-78
2022/03/24 04:45:46;;;;;;;58.23;37.00;;;5.80;99.90;;;;;;4853835;29;20461;-78
2022/03/24 04:48:17;;;;;;;58.10;38.40;;;5.80;99.90;;;;;;4853052;29;20209;-78
2022/03/24 04:50:45;;;;;;;53.33;36.17;;;5.70;99.90;;;;;;4850582;29;20442;-78
2022/03/24 04:53:15;;;;;;;59.87;38.07;;;5.80;99.90;;;;;;4851074;29;20477;-78
2022/03/24 04:55:45;;;;;;;58.27;37.70;;;5.70;99.90;;;;;;4848954;29;20464;-78
2022/03/24 04:58:15;;;;;;;54.03;36.27;;;5.60;99.90;;;;;;4849569;29;20453;-78
2022/03/24 05:00:42;;;;;;;61.27;36.93;;;5.60;99.90;;;;;;4849845;29;20502;-78
2022/03/24 05:03:24;;;;;;;61.80;37.97;;;5.60;99.90;;;;;;4850580;29;20489;-78
2022/03/24 05:05:52;;;;;;;59.97;36.43;;;5.70;99.90;;;;;;4851298;29;20478;-78
2022/03/24 05:08:23;;;;;;;59.57;36.63;;;5.60;99.90;;;;;;4849423;29;20992;-79
2022/03/24 05:10:53;;;;;;;57.67;36.87;;;5.60;99.90;;;;;;4850238;29;20486;-78
2022/03/24 05:13:23;;;;;;;59.53;36.50;;;5.50;99.90;;;;;;4849482;29;20537;-78
2022/03/24 05:15:51;;;;;;;65.07;39.10;;;5.50;99.90;;;;;;4849309;29;20484;-77
2022/03/24 05:18:21;;;;;;;59.97;37.23;;;5.60;99.90;;;;;;4848985;29;20444;-80
2022/03/24 05:20:48;;;;;;;60.83;36.83;;;5.50;99.90;;;;;;4848548;29;20442;-78
2022/03/24 05:23:17;;;;;;;60.38;39.47;;;5.50;99.90;;;;;;4849486;29;20470;-78
2022/03/24 05:25:47;;;;;;;61.07;37.23;;;5.40;99.90;;;;;;4847252;29;20573;-78
2022/03/24 05:28:16;;;;;;;54.47;37.73;;;5.40;99.90;;;;;;4849151;29;20938;-78
2022/03/24 05:30:43;;;;;;;53.03;34.77;;;5.30;99.90;;;;;;4846201;29;20879;-78
2022/03/24 05:33:10;;;;;;;52.17;35.37;;;5.40;99.90;;;;;;4845454;29;21026;-78
2022/03/24 05:35:39;;;;;;;54.87;36.90;;;5.40;99.90;;;;;;4846830;29;20461;-78
2022/03/24 05:38:06;;;;;;;59.60;34.17;;;5.40;99.90;;;;;;4850255;29;20472;-78
2022/03/24 05:40:36;;;;;;;58.83;35.87;;;5.20;99.90;;;;;;4852237;29;20844;-79
2022/03/24 05:43:05;;;;;;;57.67;36.43;;;5.30;99.90;;;;;;4852462;29;20282;-77
2022/03/24 05:45:32;;;;;;;61.80;36.93;;;5.40;99.90;;;;;;4852317;29;20453;-78
2022/03/24 05:48:01;;;;;;;63.78;43.35;;;5.40;99.90;;;;;;4851189;29;20446;-79
2022/03/24 05:50:29;;;;;;;53.43;37.03;;;5.40;99.90;;;;;;4851015;29;20198;-77
2022/03/24 05:52:59;;;;;;;57.13;36.00;;;5.40;99.90;;;;;;4850143;29;20481;-78
2022/03/24 05:55:29;;;;;;;59.27;36.77;;;5.50;99.90;;;;;;4850428;29;20459;-77
2022/03/24 05:57:56;;;;;;;56.57;35.77;;;5.50;99.90;;;;;;4848136;29;20453;-78
2022/03/24 06:00:24;;;;;;;56.23;35.37;;;5.50;99.90;;;;;;4848671;29;20472;-78
2022/03/24 06:02:53;;;;;;;55.10;35.77;;;5.50;99.90;;;;;;4842348;29;20488;-79
2022/03/24 06:05:20;;;;;;;56.90;36.60;;;5.60;99.90;;;;;;4850454;29;20473;-78
2022/03/24 06:07:48;;;;;;;61.57;35.33;;;5.60;99.90;;;;;;4849383;29;20452;-78
2022/03/24 06:10:16;;;;;;;61.60;37.37;;;5.60;99.90;;;;;;4850987;29;20897;-78
2022/03/24 06:12:46;;;;;;;60.70;35.10;;;5.50;99.90;;;;;;4851871;29;20508;-78
2022/03/24 06:15:13;;;;;;;62.20;36.60;;;5.50;99.90;;;;;;4853978;29;20461;-78
2022/03/24 06:17:40;;;;;;;56.30;36.97;;;5.60;99.90;;;;;;4855604;29;20453;-78
2022/03/24 06:20:12;;;;;;;58.53;35.93;;;5.70;99.90;;;;;;4855012;29;20465;-78
2022/03/24 06:22:55;;;;;;;60.37;35.63;;;5.80;99.90;;;;;;4855954;29;20218;-78
2022/03/24 06:25:24;;;;;;;60.60;35.47;;;5.80;99.90;;;;;;4857539;29;20445;-78
2022/03/24 06:27:52;;;;;;;55.07;35.27;;;5.90;99.90;;;;;;4857996;29;20498;-77
2022/03/24 06:30:20;;;;;;;53.83;35.67;;;5.60;99.90;;;;;;4856238;29;20235;-78
2022/03/24 06:32:49;;;;;;;54.17;33.80;;;5.70;99.90;;;;;;4854702;29;20525;-78
2022/03/24 06:35:16;;;;;;;57.27;35.13;;;5.80;99.90;;;;;;4850625;29;20250;-79
2022/03/24 06:37:44;;;;;;;60.10;36.37;;;5.80;99.90;;;;;;4851535;29;20465;-79
2022/03/24 06:40:15;;;;;;;61.90;36.37;;;5.90;99.90;;;;;;4852673;29;20559;-77
2022/03/24 06:42:45;;;;;;;59.80;34.87;;;5.90;99.90;;;;;;4854183;29;20198;-79
2022/03/24 06:45:15;;;;;;;55.77;34.30;;;5.80;99.90;;;;;;4854025;29;20214;-79
2022/03/24 06:47:45;;;;;;;58.50;35.97;;;6.00;99.90;;;;;;4852135;29;20209;-79
2022/03/24 06:50:15;;;;;;;58.97;35.27;;;6.30;99.90;;;;;;4852799;29;20218;-77
2022/03/24 06:52:43;;;;;;;58.00;36.80;;;6.40;99.90;;;;;;4851905;29;20242;-78
2022/03/24 06:55:16;;;;;;;54.93;34.53;;;6.40;99.90;;;;;;4850946;29;20237;-78
2022/03/24 06:57:49;;;;;;;62.27;36.23;;;6.50;99.90;;;;;;4851920;29;20643;-79
2022/03/24 07:00:23;;;;;;;60.70;36.27;;;6.50;99.90;;;;;;4851935;29;20293;-79
2022/03/24 07:02:53;;;;;;;55.00;37.07;;;6.50;99.90;;;;;;4853346;29;20209;-79
2022/03/24 07:05:22;;;;;;;58.57;37.83;;;6.70;99.90;;;;;;4854637;29;20216;-79
2022/03/24 07:07:52;;;;;;;60.37;39.17;;;6.80;99.90;;;;;;4851171;29;20213;-79
2022/03/24 07:10:20;;;;;;;63.30;40.37;;;7.00;99.90;;;;;;4852645;29;20216;-78
2022/03/24 07:12:49;;;;;;;60.67;39.47;;;7.20;99.90;;;;;;4851936;29;20214;-79
2022/03/24 07:15:17;;;;;;;62.43;39.20;;;7.30;99.90;;;;;;4853907;29;20213;-79
2022/03/24 07:17:48;;;;;;;59.83;38.87;;;7.40;99.90;;;;;;4853683;29;20206;-79
2022/03/24 07:20:15;;;;;;;67.77;39.80;;;7.50;99.90;;;;;;4852211;29;20202;-79
2022/03/24 07:22:42;;;;;;;64.77;39.13;;;7.60;99.90;;;;;;4849647;29;20210;-79
2022/03/24 07:25:10;;;;;;;68.97;49.35;;;7.70;99.90;;;;;;4849051;29;20471;-79
2022/03/24 07:27:39;;;;;;;60.00;43.40;;;8.10;99.90;;;;;;4848598;29;20586;-79
2022/03/24 07:30:09;;;;;;;65.97;41.83;;;8.20;99.90;;;;;;4849479;29;20274;-78
2022/03/24 07:33:14;;;;;;;66.30;42.63;;;8.20;99.90;;;;;;4861883;29;20247;-83
2022/03/24 07:36:26;;;;;;;64.93;41.27;;;8.30;99.90;;;;;;4865083;29;20190;-84
2022/03/24 07:39:03;;;;;;;63.50;40.77;;;8.60;99.90;;;;;;4866025;29;20194;-82
2022/03/24 07:41:34;;;;;;;60.10;41.57;;;8.70;99.90;;;;;;4862877;29;20293;-80
2022/03/24 07:46:42;;;;;;;66.60;41.47;;;9.00;99.90;;;;;;4825453;29;20222;-85
2022/03/24 07:49:09;;;;;;;56.73;39.47;;;9.10;99.90;;;;;;4827502;29;20195;-85
2022/03/24 07:51:37;;;;;;;75.07;43.80;;;9.30;99.90;;;;;;4826611;29;20238;-86
2022/03/24 07:54:05;;;;;;;65.17;43.30;;;9.40;99.90;;;;;;4825805;29;20257;-83
2022/03/24 07:56:34;;;;;;;66.40;41.47;;;9.50;99.90;;;;;;4826708;29;20667;-84
2022/03/24 07:59:01;;;;;;;67.67;43.37;;;9.60;99.90;;;;;;4825890;29;20599;-86
2022/03/24 08:01:29;;;;;;;73.30;43.53;;;9.80;99.90;;;;;;4826658;29;20211;-84
2022/03/24 08:03:59;;;;;;;62.27;41.03;;;10.00;99.90;;;;;;4825401;29;20218;-88
2022/03/24 08:06:26;;;;;;;71.87;42.30;;;10.20;99.90;;;;;;4826552;29;20215;-83
2022/03/24 08:08:53;;;;;;;73.23;42.53;;;10.30;99.90;;;;;;4825210;29;20214;-88
2022/03/24 08:11:22;;;;;;;65.07;42.43;;;10.40;99.90;;;;;;4826398;29;20221;-89
2022/03/24 08:13:53;;;;;;;72.40;43.00;;;10.50;99.90;;;;;;4826309;29;20305;-87
2022/03/24 08:16:20;;;;;;;72.37;43.80;;;10.80;99.90;;;;;;4826209;29;20301;-90
2022/03/24 08:18:47;;;;;;;73.47;42.43;;;10.90;99.90;;;;;;4825637;29;20210;-91
2022/03/24 08:21:15;;;;;;;72.67;44.77;;;11.10;99.90;;;;;;4826036;29;20210;-89
2022/03/24 08:23:42;;;;;;;69.77;42.00;;;11.20;99.90;;;;;;4826471;29;20237;-87
2022/03/24 08:26:09;;;;;;;74.70;43.90;;;11.30;99.90;;;;;;4826417;29;20210;-87
2022/03/24 08:28:36;;;;;;;65.70;41.70;;;11.30;99.90;;;;;;4826077;29;20215;-87
2022/03/24 08:31:03;;;;;;;66.43;44.87;;;11.30;99.90;;;;;;4825921;29;20221;-88
2022/03/24 08:33:30;;;;;;;81.60;42.57;;;11.30;99.90;;;;;;4825711;29;20221;-87
2022/03/24 08:35:57;;;;;;;79.70;44.43;;;11.30;99.90;;;;;;4825850;29;20198;-87
2022/03/24 08:38:26;;;;;;;143.50;47.13;;;11.60;99.90;;;;;;4825742;29;20211;-87
2022/03/24 08:40:53;;;;;;;73.23;43.23;;;11.90;99.90;;;;;;4825710;29;20215;-86
2022/03/24 08:43:20;;;;;;;66.93;44.23;;;12.10;99.90;;;;;;4825721;29;20198;-86
2022/03/24 08:45:47;;;;;;;77.67;43.30;;;12.20;99.90;;;;;;4825260;29;20215;-89
2022/03/24 08:48:14;;;;;;;76.00;46.47;;;12.40;99.90;;;;;;4825472;29;20223;-92
2022/03/24 08:50:41;;;;;;;74.63;44.67;;;12.40;99.90;;;;;;4825927;29;20230;-86
2022/03/24 08:53:09;;;;;;;73.03;45.70;;;12.50;99.90;;;;;;4824286;29;20251;-82
2022/03/24 08:55:39;;;;;;;80.77;47.80;;;12.70;99.90;;;;;;4824907;29;20200;-82
2022/03/24 08:58:06;;;;;;;74.27;48.23;;;12.80;99.90;;;;;;4824412;29;20593;-81
2022/03/24 09:00:34;;;;;;;79.60;47.37;;;12.90;99.90;;;;;;4825205;29;20305;-83
2022/03/24 09:03:01;;;;;;;79.10;48.77;;;13.00;99.90;;;;;;4824699;29;20309;-81
2022/03/24 09:05:28;;;;;;;81.77;48.13;;;13.30;99.90;;;;;;4824574;29;20216;-87
2022/03/24 09:07:56;;;;;;;75.73;49.97;;;13.30;99.90;;;;;;4825108;29;20209;-88
2022/03/24 09:10:23;;;;;;;72.97;47.77;;;13.60;99.90;;;;;;4824071;29;20204;-86
2022/03/24 09:12:51;;;;;;;77.47;49.20;;;13.60;99.90;;;;;;4824975;29;20218;-89
2022/03/24 09:15:20;;;;;;;72.30;47.83;;;13.80;99.90;;;;;;4824882;29;20213;-90
2022/03/24 09:17:48;;;;;;;71.43;48.10;;;14.00;99.90;;;;;;4824838;29;20204;-87
2022/03/24 09:20:18;;;;;;;75.73;48.17;;;14.30;99.90;;;;;;4824878;29;20241;-81
2022/03/24 09:22:48;;;;;;;75.53;48.27;;;14.60;99.60;;;;;;4824779;29;20210;-85
2022/03/24 09:25:17;;;;;;;75.93;47.27;;;14.70;99.00;;;;;;4824716;29;20206;-88
2022/03/24 09:27:45;;;;;;;68.23;45.87;;;14.60;98.60;;;;;;4824879;29;20214;-84
2022/03/24 09:30:15;;;;;;;67.07;46.70;;;14.70;98.40;;;;;;4825270;29;20214;-82
2022/03/24 09:32:45;;;;;;;70.23;45.17;;;14.60;98.40;;;;;;4823697;29;20552;-80
2022/03/24 09:35:13;;;;;;;74.40;50.57;;;14.70;97.60;;;;;;4824806;29;20210;-80
2022/03/24 09:37:40;;;;;;;75.03;45.60;;;14.80;98.20;;;;;;4824756;29;20210;-85
2022/03/24 09:40:08;;;;;;;61.70;44.37;;;15.00;97.40;;;;;;4824550;29;20276;-88
2022/03/24 09:42:36;;;;;;;73.20;46.10;;;15.20;97.40;;;;;;4824845;29;20221;-86
2022/03/24 09:45:05;;;;;;;62.50;42.77;;;15.30;97.10;;;;;;4821643;29;20238;-87
2022/03/24 09:47:35;;;;;;;70.83;45.37;;;15.60;96.10;;;;;;4823610;29;20211;-88
2022/03/24 09:50:05;;;;;;;65.27;47.60;;;15.80;95.90;;;;;;4823912;29;20456;-86
2022/03/24 09:52:33;;;;;;;58.97;39.47;;;15.90;95.30;;;;;;4824545;29;20726;-84
2022/03/24 09:55:00;;;;;;;52.20;36.73;;;15.80;94.90;;;;;;4824397;29;20210;-87
2022/03/24 09:57:27;;;;;;;53.27;33.73;;;15.90;94.10;;;;;;4824657;29;20210;-79
2022/03/24 09:59:54;;;;;;;47.73;33.10;;;15.90;93.80;;;;;;4824162;29;20221;-81
2022/03/24 10:02:21;;;;;;;46.03;30.50;;;16.20;94.10;;;;;;4825340;29;20579;-79
2022/03/24 10:04:52;;;;;;;39.27;28.40;;;16.10;93.40;;;;;;4829250;29;20241;-81
2022/03/24 10:07:20;;;;;;;42.47;30.00;;;16.10;93.50;;;;;;4829354;29;20205;-80
2022/03/24 10:09:49;;;;;;;43.50;30.77;;;16.10;94.00;;;;;;4832574;29;20732;-80
2022/03/24 10:12:21;;;;;;;44.40;31.37;;;16.30;94.30;;;;;;4835951;29;20200;-88
2022/03/24 10:14:59;;;;;;;41.97;29.93;;;16.30;94.20;;;;;;4832091;29;20219;-80
2022/03/24 10:17:26;;;;;;;45.10;30.67;;;16.40;94.70;;;;;;4832820;29;20208;-83
2022/03/24 10:19:59;;;;;;;37.73;27.33;;;16.50;93.90;;;;;;4827515;29;20221;-80
2022/03/24 10:22:27;;;;;;;39.43;27.63;;;16.60;93.10;;;;;;4826704;29;20216;-82
2022/03/24 10:24:54;;;;;;;38.67;28.20;;;16.70;92.80;;;;;;4827556;29;20251;-81
2022/03/24 10:27:23;;;;;;;40.10;26.57;;;16.70;92.70;;;;;;4827270;29;20220;-86
2022/03/24 10:29:56;;;;;;;43.27;28.57;;;16.50;92.70;;;;;;4829083;29;20574;-88
2022/03/24 10:32:27;;;;;;;42.60;29.07;;;16.40;93.60;;;;;;4830942;29;20199;-85
2022/03/24 10:34:59;;;;;;;39.00;27.23;;;16.50;94.20;;;;;;4827320;29;20284;-84
2022/03/24 10:37:27;;;;;;;36.78;25.55;;;16.50;92.90;;;;;;4827716;29;20443;-89
2022/03/24 10:40:02;;;;;;;38.93;25.20;;;16.70;92.40;;;;;;4827066;29;20219;-86
2022/03/24 10:42:31;;;;;;;33.37;24.17;;;16.80;91.70;;;;;;4823430;29;20212;-88
2022/03/24 10:45:07;;;;;;;31.93;23.13;;;16.70;91.10;;;;;;4826272;29;20245;-88
2022/03/24 10:47:42;;;;;;;33.27;22.90;;;16.70;90.40;;;;;;4826606;29;20573;-85
2022/03/24 10:50:29;;;;;;;31.20;23.00;;;16.80;91.30;;;;;;4825811;29;20223;-80
2022/03/24 10:53:01;;;;;;;35.67;23.90;;;17.00;90.90;;;;;;4826965;29;20238;-89
2022/03/24 10:55:52;;;;;;;39.53;25.97;;;17.00;90.30;;;;;;4826598;29;20659;-85
2022/03/24 10:58:22;;;;;;;34.83;26.07;;;16.90;91.00;;;;;;4825729;29;20217;-82
2022/03/24 11:00:52;;;;;;;36.27;26.33;;;17.00;91.20;;;;;;4824921;29;20246;-81
2022/03/24 11:03:20;;;;;;;39.97;29.60;;;17.00;90.70;;;;;;4824209;29;20452;-83
2022/03/24 11:05:48;;;;;;;33.93;26.23;;;17.20;90.50;;;;;;4825502;29;20249;-80
2022/03/24 11:08:18;;;;;;;36.37;25.40;;;17.10;90.20;;;;;;4826532;29;20212;-80
2022/03/24 11:10:47;;;;;;;33.57;25.03;;;17.50;90.60;;;;;;4826444;29;20255;-83
2022/03/24 11:13:23;;;;;;;34.60;24.60;;;17.20;88.60;;;;;;4826193;29;20211;-81
2022/03/24 11:15:51;;;;;;;28.23;21.53;;;17.20;87.10;;;;;;4826115;29;20268;-90
2022/03/24 11:18:18;;;;;;;33.40;22.73;;;17.30;85.50;;;;;;4826310;29;20218;-82
2022/03/24 11:20:46;;;;;;;32.90;22.53;;;17.40;85.30;;;;;;4826358;29;20219;-81
2022/03/24 11:23:35;;;;;;;31.60;22.73;;;17.40;84.90;;;;;;4826362;29;20666;-90
2022/03/24 11:26:03;;;;;;;35.27;24.43;;;17.50;84.30;;;;;;4826476;29;20280;-85
2022/03/24 11:28:32;;;;;;;31.03;24.17;;;17.60;87.20;;;;;;4825747;29;20214;-87
2022/03/24 11:31:04;;;;;;;32.53;22.73;;;17.60;84.70;;;;;;4826209;29;20563;-88
2022/03/24 11:33:37;;;;;;;28.57;21.30;;;17.70;85.60;;;;;;4825488;29;20255;-83
2022/03/24 11:36:04;;;;;;;32.90;21.60;;;17.70;84.60;;;;;;4826207;29;20222;-88
2022/03/24 11:38:32;;;;;;;29.90;21.00;;;17.70;84.20;;;;;;4826364;29;20668;-86
2022/03/24 11:41:03;;;;;;;28.30;20.43;;;17.70;80.40;;;;;;4825899;29;20221;-83
2022/03/24 11:43:31;;;;;;;33.43;20.87;;;17.60;81.00;;;;;;4828415;29;20209;-84
2022/03/24 11:46:02;;;;;;;36.37;22.43;;;17.60;81.50;;;;;;4830392;29;20231;-82
2022/03/24 11:48:35;;;;;;;31.00;21.10;;;17.40;82.00;;;;;;4825702;29;20237;-88
2022/03/24 11:51:17;;;;;;;34.33;21.63;;;17.40;82.50;;;;;;4823602;29;20246;-88
2022/03/24 11:53:59;;;;;;;27.83;21.10;;;17.70;83.30;;;;;;4825954;29;20223;-87
2022/03/24 11:56:26;;;;;;;33.73;21.50;;;17.80;82.10;;;;;;4823474;29;20225;-88
2022/03/24 11:59:19;;;;;;;30.30;20.67;;;17.90;82.00;;;;;;4825936;29;20200;-89
2022/03/24 12:02:15;;;;;;;30.47;21.47;;;17.90;80.40;;;;;;4823415;29;20648;-86
2022/03/24 12:04:51;;;;;;;30.53;20.73;;;17.90;78.80;;;;;;4825588;29;20251;-84
2022/03/24 12:07:19;;;;;;;29.93;20.70;;;17.80;78.80;;;;;;4826185;29;20213;-88
2022/03/24 12:10:00;;;;;;;29.27;20.93;;;17.90;78.30;;;;;;4825985;29;20214;-83
2022/03/24 12:12:27;;;;;;;32.00;20.27;;;17.90;77.60;;;;;;4825372;29;20252;-80
2022/03/24 12:14:54;;;;;;;30.92;22.67;;;18.00;79.00;;;;;;4825315;29;20458;-89
2022/03/24 12:17:25;;;;;;;31.30;19.60;;;18.00;77.10;;;;;;4825798;29;20656;-84
2022/03/24 12:19:59;;;;;;;29.33;19.90;;;17.90;76.30;;;;;;4826256;29;20249;-89
2022/03/24 12:22:37;;;;;;;31.40;19.77;;;18.00;75.80;;;;;;4825587;29;20222;-88
2022/03/24 12:25:28;;;;;;;25.13;19.77;;;18.20;76.60;;;;;;4825319;29;20281;-83
2022/03/24 12:28:18;;;;;;;30.37;19.53;;;18.20;75.50;;;;;;4825783;29;20259;-87
2022/03/24 12:31:00;;;;;;;26.67;19.47;;;18.20;73.80;;;;;;4826128;29;20217;-80
2022/03/24 12:33:36;;;;;;;28.73;20.00;;;18.30;75.10;;;;;;4825131;29;20218;-82
2022/03/24 12:36:04;;;;;;;30.63;20.87;;;18.40;73.70;;;;;;4827256;29;20223;-79
2022/03/24 12:38:46;;;;;;;31.20;20.43;;;18.30;74.80;;;;;;4829430;29;20640;-81
2022/03/24 12:41:40;;;;;;;29.57;19.87;;;18.10;75.60;;;;;;4830849;29;20624;-83
2022/03/24 12:44:09;;;;;;;29.03;20.67;;;18.20;75.30;;;;;;4828407;29;20229;-79
2022/03/24 12:46:43;;;;;;;29.23;19.60;;;18.20;74.50;;;;;;4830810;29;20227;-84
2022/03/24 12:49:27;;;;;;;28.23;20.57;;;18.40;74.50;;;;;;4830460;29;20251;-83
2022/03/24 12:52:01;;;;;;;34.13;20.03;;;18.30;74.60;;;;;;4827763;29;20229;-79
2022/03/24 12:54:30;;;;;;;22.93;18.33;;;18.30;73.00;;;;;;4828270;29;20289;-84